Time;durP1;ratioP1;P1;durP2;ratioP2;P2;SDS_P1;SDS_P2;PMS_P1;PMS_P2;Temp;Humidity;BMP_temperature;BMP_pressure;BME280_temperature;BME280_humidity;BME280_pressure;Samples;Min_cycle;Max_cycle;Signal;HPM_P1;HPM_P2
2021/12/19 00:00:46;;;;;;;83.75;48.42;;;;;;;;;;5044234;28;20060;-82
2021/12/19 00:11:02;;;;;;;83.63;49.45;;;;;;;;;;5078090;28;20068;-84
2021/12/19 00:13:28;;;;;;;78.55;47.45;;;;;;;;;;5054965;28;20037;-84
2021/12/19 00:15:54;;;;;;;87.45;48.22;;;;;;;;;;5046813;28;20096;-85
2021/12/19 00:18:20;;;;;;;89.70;51.10;;;;;;;;;;5065376;28;20056;-85
2021/12/19 00:20:46;;;;;;;87.72;51.17;;;;;;;;;;5048429;28;20041;-86
2021/12/19 00:23:12;;;;;;;86.68;49.67;;;;;;;;;;5065937;28;20037;-85
2021/12/19 00:25:38;;;;;;;91.68;50.90;;;;;;;;;;5066883;28;20041;-85
2021/12/19 00:28:05;;;;;;;91.43;50.72;;;;;;;;;;5048080;28;20037;-85
2021/12/19 00:30:31;;;;;;;87.35;49.85;;;;;;;;;;5047075;28;20040;-85
2021/12/19 00:32:57;;;;;;;93.78;50.95;;;;;;;;;;5047662;28;20044;-86
2021/12/19 00:35:23;;;;;;;87.18;50.80;;;;;;;;;;5047573;28;20045;-85
2021/12/19 00:37:49;;;;;;;82.80;49.50;;;;;;;;;;5048062;28;20095;-86
2021/12/19 00:40:15;;;;;;;88.72;50.78;;;;;;;;;;5052289;28;20456;-85
2021/12/19 00:42:42;;;;;;;88.25;51.45;;;;;;;;;;5053978;28;20037;-83
2021/12/19 00:48:07;;;;;;;80.90;49.28;;;;;;;;;;5017721;28;20080;-84
2021/12/19 00:50:34;;;;;;;84.47;48.00;;;;;;;;;;5064527;28;20372;-85
2021/12/19 00:53:00;;;;;;;89.32;51.22;;;;;;;;;;5048674;28;20112;-82
2021/12/19 00:55:27;;;;;;;86.55;51.47;;;;;;;;;;5052135;28;20029;-82
2021/12/19 00:57:53;;;;;;;90.70;50.15;;;;;;;;;;5069326;28;20041;-85
2021/12/19 01:00:20;;;;;;;81.38;49.85;;;;;;;;;;5060109;28;20048;-85
2021/12/19 01:02:46;;;;;;;97.50;51.53;;;;;;;;;;5044139;28;20045;-84
2021/12/19 01:05:12;;;;;;;83.47;50.58;;;;;;;;;;5060611;28;20463;-85
2021/12/19 01:07:38;;;;;;;88.68;50.08;;;;;;;;;;5063251;28;20037;-85
2021/12/19 01:10:05;;;;;;;82.18;49.22;;;;;;;;;;5046613;28;20041;-85
2021/12/19 01:12:32;;;;;;;86.97;49.53;;;;;;;;;;5045062;28;20445;-85
2021/12/19 01:14:58;;;;;;;87.90;49.22;;;;;;;;;;5045294;28;20045;-85
2021/12/19 01:17:24;;;;;;;94.13;49.95;;;;;;;;;;5044222;28;20076;-84
2021/12/19 01:19:50;;;;;;;86.85;49.28;;;;;;;;;;5046139;28;20056;-84
2021/12/19 01:22:16;;;;;;;80.30;49.00;;;;;;;;;;5045961;28;20399;-84
2021/12/19 01:24:42;;;;;;;83.53;47.95;;;;;;;;;;5046999;28;20096;-86
2021/12/19 01:27:09;;;;;;;81.03;47.20;;;;;;;;;;5064216;28;20044;-87
2021/12/19 01:29:35;;;;;;;75.97;44.75;;;;;;;;;;5065358;28;20041;-86
2021/12/19 01:32:01;;;;;;;75.88;45.15;;;;;;;;;;5059153;28;20036;-84
2021/12/19 01:34:27;;;;;;;79.03;44.20;;;;;;;;;;5045226;28;20142;-84
2021/12/19 01:36:53;;;;;;;73.18;43.38;;;;;;;;;;5045662;28;20853;-85
2021/12/19 01:39:19;;;;;;;72.55;43.67;;;;;;;;;;5063571;28;20108;-83
2021/12/19 01:41:55;;;;;;;76.35;41.58;;;;;;;;;;5064364;28;20056;-84
2021/12/19 01:44:21;;;;;;;73.85;41.88;;;;;;;;;;5052937;28;20037;-84
2021/12/19 01:46:48;;;;;;;67.22;41.08;;;;;;;;;;5054288;28;20041;-84
2021/12/19 01:49:14;;;;;;;73.68;41.40;;;;;;;;;;5052970;28;20041;-84
2021/12/19 01:51:40;;;;;;;63.55;39.35;;;;;;;;;;5052165;28;20041;-85
2021/12/19 01:54:06;;;;;;;58.83;37.25;;;;;;;;;;5066991;28;20040;-85
2021/12/19 01:56:32;;;;;;;68.40;38.00;;;;;;;;;;5045136;28;20040;-85
2021/12/19 01:58:58;;;;;;;60.88;35.00;;;;;;;;;;5061390;28;20123;-84
2021/12/19 02:01:24;;;;;;;60.78;36.30;;;;;;;;;;5060617;28;20108;-83
2021/12/19 02:03:50;;;;;;;58.72;37.13;;;;;;;;;;5060189;28;20064;-83
2021/12/19 02:06:16;;;;;;;60.08;37.08;;;;;;;;;;5044505;28;20041;-83
2021/12/19 02:08:43;;;;;;;60.67;34.67;;;;;;;;;;5049023;28;20041;-83
2021/12/19 02:11:08;;;;;;;57.80;35.30;;;;;;;;;;5043947;28;20055;-83
2021/12/19 02:13:35;;;;;;;65.38;35.40;;;;;;;;;;5043891;28;20048;-84
2021/12/19 02:16:01;;;;;;;62.85;36.30;;;;;;;;;;5046185;28;20166;-84
2021/12/19 02:18:27;;;;;;;58.13;36.42;;;;;;;;;;5062409;28;20037;-82
2021/12/19 02:21:00;;;;;;;;;;;;;;;;;;5061112;28;20048;-84
2021/12/19 02:23:27;;;;;;;66.38;37.97;;;;;;;;;;5063321;28;19992;-84
2021/12/19 02:25:53;;;;;;;66.90;38.97;;;;;;;;;;5060878;28;20063;-83
2021/12/19 02:28:20;;;;;;;66.70;39.83;;;;;;;;;;5043240;28;20065;-81
2021/12/19 02:30:45;;;;;;;62.60;39.42;;;;;;;;;;5042612;28;20095;-82
2021/12/19 02:33:15;;;;;;;68.97;39.83;;;;;;;;;;5042724;28;20099;-83
2021/12/19 02:35:45;;;;;;;71.05;41.83;;;;;;;;;;5047316;28;20045;-80
2021/12/19 02:38:39;;;;;;;71.10;41.13;;;;;;;;;;5047553;28;20048;-83
2021/12/19 02:49:02;;;;;;;67.68;41.13;;;;;;;;;;5065095;28;20033;-83
2021/12/19 02:51:33;;;;;;;61.90;39.50;;;;;;;;;;5049242;28;20411;-81
2021/12/19 02:54:00;;;;;;;71.20;41.55;;;;;;;;;;5049484;28;20072;-83
2021/12/19 02:56:26;;;;;;;73.20;41.25;;;;;;;;;;5052909;28;20048;-82
2021/12/19 02:58:52;;;;;;;65.38;39.03;;;;;;;;;;5048489;28;20041;-82
2021/12/19 03:01:19;;;;;;;70.40;43.08;;;;;;;;;;5048972;28;20041;-85
2021/12/19 03:03:45;;;;;;;64.13;39.90;;;;;;;;;;5064063;28;20508;-83
2021/12/19 03:06:12;;;;;;;65.18;38.95;;;;;;;;;;5065073;28;20049;-84
2021/12/19 03:08:43;;;;;;;68.07;39.42;;;;;;;;;;5048885;28;20517;-83
2021/12/19 03:19:22;;;;;;;71.30;41.72;;;;;;;;;;5062147;28;20132;-82
2021/12/19 03:21:48;;;;;;;71.97;42.65;;;;;;;;;;5064911;28;20065;-81
2021/12/19 03:24:14;;;;;;;65.63;40.95;;;;;;;;;;5048797;28;20102;-82
2021/12/19 03:26:40;;;;;;;72.70;43.25;;;;;;;;;;5047642;28;20041;-81
2021/12/19 03:29:06;;;;;;;75.70;44.28;;;;;;;;;;5068506;28;20475;-83
2021/12/19 03:31:32;;;;;;;82.25;44.20;;;;;;;;;;5047113;28;20036;-86
2021/12/19 03:33:59;;;;;;;77.10;46.30;;;;;;;;;;5066354;28;20033;-85
2021/12/19 03:36:25;;;;;;;80.22;46.90;;;;;;;;;;5048706;28;20111;-83
2021/12/19 03:38:57;;;;;;;75.32;45.80;;;;;;;;;;5063782;28;20049;-82
2021/12/19 03:41:26;;;;;;;76.90;47.47;;;;;;;;;;5046805;28;20143;-83
2021/12/19 03:43:52;;;;;;;85.43;49.72;;;;;;;;;;5062584;28;20139;-83
2021/12/19 03:46:18;;;;;;;84.25;48.20;;;;;;;;;;5068430;28;20041;-84
2021/12/19 03:48:44;;;;;;;86.00;49.42;;;;;;;;;;5048368;28;20373;-85
2021/12/19 03:51:10;;;;;;;75.03;46.28;;;;;;;;;;5050571;28;20039;-84
2021/12/19 03:53:36;;;;;;;75.90;46.70;;;;;;;;;;5065402;28;20045;-83
2021/12/19 03:56:02;;;;;;;84.00;48.17;;;;;;;;;;5067967;28;20068;-85
2021/12/19 03:58:30;;;;;;;64.93;42.05;;;;;;;;;;5046506;28;20048;-81
2021/12/19 04:00:59;;;;;;;63.22;39.03;;;;;;;;;;5064688;28;20422;-83
2021/12/19 04:03:25;;;;;;;58.97;36.33;;;;;;;;;;5065797;28;20045;-83
2021/12/19 04:05:51;;;;;;;57.83;31.55;;;;;;;;;;5062472;28;20379;-84
2021/12/19 04:08:17;;;;;;;52.03;31.80;;;;;;;;;;5046932;28;20048;-83
2021/12/19 04:10:43;;;;;;;40.13;28.58;;;;;;;;;;5047582;28;20083;-84
2021/12/19 04:13:10;;;;;;;42.90;28.25;;;;;;;;;;5047773;28;20040;-84
2021/12/19 04:15:36;;;;;;;43.22;27.35;;;;;;;;;;5050592;28;20048;-85
2021/12/19 04:18:02;;;;;;;43.13;26.02;;;;;;;;;;5064725;28;20036;-82
2021/12/19 04:20:28;;;;;;;37.83;24.30;;;;;;;;;;5062144;28;20059;-79
2021/12/19 04:22:54;;;;;;;36.05;23.40;;;;;;;;;;5046084;28;20092;-82
2021/12/19 04:25:20;;;;;;;37.65;22.38;;;;;;;;;;5064064;28;20112;-86
2021/12/19 04:27:46;;;;;;;33.40;20.48;;;;;;;;;;5064789;28;20037;-83
2021/12/19 04:30:15;;;;;;;32.38;21.17;;;;;;;;;;5063924;28;20037;-85
2021/12/19 04:32:45;;;;;;;36.45;21.58;;;;;;;;;;5047436;28;20037;-84
2021/12/19 04:35:11;;;;;;;33.50;20.98;;;;;;;;;;5046165;28;20049;-85
2021/12/19 04:40:26;;;;;;;36.60;21.77;;;;;;;;;;5064611;28;20055;-86
2021/12/19 04:51:24;;;;;;;37.45;23.23;;;;;;;;;;5062790;28;20330;-81
2021/12/19 04:54:17;;;;;;;42.30;24.88;;;;;;;;;;5047622;28;20041;-82
2021/12/19 05:00:32;;;;;;;38.75;25.40;;;;;;;;;;5064119;28;20033;-81
2021/12/19 05:05:23;;;;;;;39.88;25.55;;;;;;;;;;5061769;28;20041;-85
2021/12/19 05:16:03;;;;;;;39.13;23.10;;;;;;;;;;5065395;28;20037;-85
2021/12/19 05:18:33;;;;;;;36.20;22.65;;;;;;;;;;5044438;28;20040;-84
2021/12/19 05:21:04;;;;;;;36.95;22.88;;;;;;;;;;5048343;28;20037;-84
2021/12/19 05:25:56;;;;;;;40.00;23.50;;;;;;;;;;5061689;28;20072;-82
2021/12/19 05:28:22;;;;;;;32.85;21.23;;;;;;;;;;5062380;28;20048;-81
2021/12/19 05:30:48;;;;;;;32.95;20.90;;;;;;;;;;5061715;28;20457;-81
2021/12/19 05:33:15;;;;;;;31.52;20.55;;;;;;;;;;5061902;28;20037;-85
2021/12/19 05:46:35;;;;;;;31.67;19.33;;;;;;;;;;5065479;28;20049;-83
2021/12/19 05:49:04;;;;;;;31.73;19.00;;;;;;;;;;5063099;28;20067;-84
2021/12/19 05:51:30;;;;;;;33.30;18.08;;;;;;;;;;5044379;28;20048;-83
2021/12/19 05:53:56;;;;;;;29.15;17.90;;;;;;;;;;5062557;28;20037;-81
2021/12/19 05:56:22;;;;;;;31.23;17.88;;;;;;;;;;5060721;28;20040;-84
2021/12/19 05:58:48;;;;;;;28.58;17.92;;;;;;;;;;5044831;28;20438;-84
2021/12/19 06:01:14;;;;;;;28.10;17.13;;;;;;;;;;5045618;28;20068;-83
2021/12/19 06:03:40;;;;;;;28.77;16.90;;;;;;;;;;5047611;28;20045;-84
2021/12/19 06:06:06;;;;;;;30.65;16.55;;;;;;;;;;5049113;28;20440;-81
2021/12/19 06:08:32;;;;;;;26.83;15.93;;;;;;;;;;5062453;28;20040;-83
2021/12/19 06:10:58;;;;;;;28.90;16.73;;;;;;;;;;5046098;28;20068;-82
2021/12/19 06:13:24;;;;;;;28.05;16.13;;;;;;;;;;5044375;28;20415;-82
2021/12/19 06:15:53;;;;;;;31.23;16.73;;;;;;;;;;5045556;28;20100;-87
2021/12/19 06:18:19;;;;;;;29.17;17.38;;;;;;;;;;5045340;28;20044;-84
2021/12/19 06:20:45;;;;;;;34.47;18.00;;;;;;;;;;5060742;28;20045;-83
2021/12/19 06:23:11;;;;;;;33.63;19.60;;;;;;;;;;5063148;28;20037;-82
2021/12/19 06:25:45;;;;;;;41.65;20.92;;;;;;;;;;5043604;28;20071;-80
2021/12/19 06:28:11;;;;;;;42.75;21.88;;;;;;;;;;5055733;28;20036;-78
2021/12/19 06:30:37;;;;;;;43.70;22.10;;;;;;;;;;5040797;28;20067;-80
2021/12/19 06:33:03;;;;;;;44.08;20.75;;;;;;;;;;5063825;28;20068;-79
2021/12/19 06:35:29;;;;;;;35.30;19.92;;;;;;;;;;5062203;28;20136;-77
2021/12/19 06:37:55;;;;;;;31.02;18.20;;;;;;;;;;5065196;28;20049;-77
2021/12/19 06:40:24;;;;;;;36.42;19.13;;;;;;;;;;5062505;28;20092;-79
2021/12/19 06:42:50;;;;;;;31.95;16.42;;;;;;;;;;5044431;28;20067;-80
2021/12/19 06:45:16;;;;;;;26.58;13.85;;;;;;;;;;5059105;28;20056;-78
2021/12/19 06:47:42;;;;;;;29.17;15.65;;;;;;;;;;5056421;28;20029;-76
2021/12/19 06:50:08;;;;;;;19.70;11.98;;;;;;;;;;5041447;28;20072;-77
2021/12/19 06:52:35;;;;;;;21.73;11.32;;;;;;;;;;5042705;28;20425;-79
2021/12/19 06:55:01;;;;;;;16.95;10.15;;;;;;;;;;5057604;28;20048;-78
2021/12/19 06:57:27;;;;;;;15.90;9.63;;;;;;;;;;5039407;28;20061;-78
2021/12/19 06:59:53;;;;;;;18.35;10.18;;;;;;;;;;5043111;28;20037;-80
2021/12/19 07:02:19;;;;;;;16.33;9.80;;;;;;;;;;5049335;28;20444;-81
2021/12/19 07:04:45;;;;;;;15.30;8.98;;;;;;;;;;5064636;28;20055;-78
2021/12/19 07:07:11;;;;;;;14.98;9.52;;;;;;;;;;5061979;28;20086;-79
2021/12/19 07:09:38;;;;;;;16.08;9.50;;;;;;;;;;5061885;28;20028;-78
2021/12/19 07:12:04;;;;;;;18.02;10.15;;;;;;;;;;5062687;28;20048;-79
2021/12/19 07:14:30;;;;;;;17.70;10.10;;;;;;;;;;5043790;28;20109;-78
2021/12/19 07:16:56;;;;;;;19.13;11.38;;;;;;;;;;5078222;28;20044;-78
2021/12/19 07:19:22;;;;;;;19.33;11.70;;;;;;;;;;5060358;28;20074;-79
2021/12/19 07:21:48;;;;;;;21.10;12.02;;;;;;;;;;5062994;28;20067;-79
2021/12/19 07:24:15;;;;;;;20.63;11.50;;;;;;;;;;5048751;28;20043;-80
2021/12/19 07:26:41;;;;;;;22.85;12.68;;;;;;;;;;5065713;28;20036;-80
2021/12/19 07:29:07;;;;;;;25.65;13.32;;;;;;;;;;5065462;28;20116;-80
2021/12/19 07:31:37;;;;;;;23.95;12.25;;;;;;;;;;5065267;28;20044;-80
2021/12/19 07:34:04;;;;;;;19.08;12.45;;;;;;;;;;5086182;28;20048;-78
2021/12/19 07:36:38;;;;;;;19.92;11.70;;;;;;;;;;5080348;28;20471;-77
2021/12/19 07:39:53;;;;;;;20.85;12.10;;;;;;;;;;5045756;28;20044;-77
2021/12/19 07:41:53;;;;;;;20.38;12.15;;;;;;;;;;5053517;28;20040;-77
2021/12/19 07:44:20;;;;;;;19.75;12.10;;;;;;;;;;5066259;28;20051;-79
2021/12/19 07:46:46;;;;;;;20.15;11.40;;;;;;;;;;5047131;28;20040;-80
2021/12/19 07:49:12;;;;;;;27.02;12.23;;;;;;;;;;5064356;28;20047;-79
2021/12/19 07:51:38;;;;;;;21.25;11.77;;;;;;;;;;5049863;28;20044;-79
2021/12/19 07:54:04;;;;;;;19.42;11.32;;;;;;;;;;5062960;28;20063;-79
2021/12/19 07:56:31;;;;;;;21.67;12.32;;;;;;;;;;5049813;28;20056;-79
2021/12/19 07:58:57;;;;;;;20.98;12.18;;;;;;;;;;5054201;28;20165;-78
2021/12/19 08:01:23;;;;;;;19.98;12.05;;;;;;;;;;5068067;28;20060;-79
2021/12/19 08:03:49;;;;;;;20.77;12.18;;;;;;;;;;5095067;28;20036;-78
2021/12/19 08:06:15;;;;;;;19.60;12.50;;;;;;;;;;5052569;28;20055;-78
2021/12/19 08:08:47;;;;;;;20.08;11.88;;;;;;;;;;5092335;28;20074;-78
2021/12/19 08:13:57;;;;;;;17.15;10.65;;;;;;;;;;5096963;28;20040;-78
2021/12/19 08:16:24;;;;;;;17.20;10.35;;;;;;;;;;5066404;28;20451;-81
2021/12/19 08:18:51;;;;;;;21.23;12.15;;;;;;;;;;5085474;28;20041;-79
2021/12/19 08:21:17;;;;;;;19.65;10.93;;;;;;;;;;5051051;28;20044;-79
2021/12/19 08:23:43;;;;;;;20.00;10.85;;;;;;;;;;5049471;28;20432;-79
2021/12/19 08:26:09;;;;;;;19.63;11.30;;;;;;;;;;5045388;28;20093;-77
2021/12/19 08:28:35;;;;;;;19.00;11.15;;;;;;;;;;5062342;28;20111;-77
2021/12/19 08:31:01;;;;;;;17.83;11.18;;;;;;;;;;5061338;28;20045;-78
2021/12/19 08:33:27;;;;;;;20.63;11.48;;;;;;;;;;5062508;28;20119;-79
2021/12/19 08:35:53;;;;;;;17.35;11.25;;;;;;;;;;5080649;28;20125;-78
2021/12/19 08:38:19;;;;;;;22.30;12.80;;;;;;;;;;5063542;28;20097;-81
2021/12/19 08:40:47;;;;;;;18.80;11.75;;;;;;;;;;5063212;28;20047;-79
2021/12/19 08:43:13;;;;;;;21.70;12.65;;;;;;;;;;5045905;28;20116;-79
2021/12/19 08:45:39;;;;;;;22.08;13.57;;;;;;;;;;5082407;28;20397;-81
2021/12/19 08:48:05;;;;;;;23.50;13.50;;;;;;;;;;5065267;28;20044;-80
2021/12/19 08:50:31;;;;;;;20.83;13.18;;;;;;;;;;5049494;28;20040;-80
2021/12/19 08:52:57;;;;;;;23.80;13.93;;;;;;;;;;5065359;28;20070;-80
2021/12/19 08:55:23;;;;;;;22.15;14.27;;;;;;;;;;5065158;28;20096;-79
2021/12/19 08:57:49;;;;;;;29.67;14.43;;;;;;;;;;5064414;28;20048;-79
2021/12/19 09:00:18;;;;;;;23.63;15.05;;;;;;;;;;5063078;28;20063;-78
2021/12/19 09:02:46;;;;;;;24.67;15.75;;;;;;;;;;5063853;28;20047;-81
2021/12/19 09:05:12;;;;;;;24.55;14.82;;;;;;;;;;5049429;28;20033;-81
2021/12/19 09:07:38;;;;;;;27.73;16.63;;;;;;;;;;5051445;28;20095;-80
2021/12/19 09:10:04;;;;;;;23.08;15.52;;;;;;;;;;5069943;28;20044;-78
2021/12/19 09:12:30;;;;;;;25.65;16.33;;;;;;;;;;5083933;28;20044;-78
2021/12/19 09:14:56;;;;;;;30.52;16.70;;;;;;;;;;5055433;28;20063;-79
2021/12/19 09:17:22;;;;;;;29.90;16.75;;;;;;;;;;5048815;28;20082;-80
2021/12/19 09:19:48;;;;;;;25.15;14.95;;;;;;;;;;5044584;28;20052;-77
2021/12/19 09:22:14;;;;;;;25.92;16.20;;;;;;;;;;5048458;28;20048;-77
2021/12/19 09:24:40;;;;;;;24.52;14.80;;;;;;;;;;5065863;28;20418;-80
2021/12/19 09:27:07;;;;;;;25.40;15.90;;;;;;;;;;5078204;28;20047;-77
2021/12/19 09:29:33;;;;;;;28.58;15.60;;;;;;;;;;5044314;28;20041;-79
2021/12/19 09:32:00;;;;;;;27.17;15.80;;;;;;;;;;5044704;28;20044;-77
2021/12/19 09:34:29;;;;;;;26.85;15.15;;;;;;;;;;5045465;28;20142;-79
2021/12/19 09:36:55;;;;;;;22.85;14.60;;;;;;;;;;5079574;28;20036;-79
2021/12/19 09:39:22;;;;;;;27.88;15.82;;;;;;;;;;5044709;28;20474;-79
2021/12/19 09:41:48;;;;;;;24.80;15.82;;;;;;;;;;5060645;28;20059;-79
2021/12/19 09:44:15;;;;;;;29.33;17.30;;;;;;;;;;5043780;28;20044;-79
2021/12/19 09:46:42;;;;;;;30.35;16.10;;;;;;;;;;5045361;28;20067;-80
2021/12/19 09:49:14;;;;;;;27.08;16.30;;;;;;;;;;5079191;28;20048;-79
2021/12/19 09:51:40;;;;;;;24.77;16.58;;;;;;;;;;5060640;28;20125;-78
2021/12/19 09:54:06;;;;;;;25.00;15.88;;;;;;;;;;5044604;28;20059;-77
2021/12/19 09:56:34;;;;;;;32.45;16.60;;;;;;;;;;5065929;28;20060;-79
2021/12/19 09:59:00;;;;;;;29.58;17.90;;;;;;;;;;5046977;28;20080;-80
2021/12/19 10:01:26;;;;;;;25.92;16.15;;;;;;;;;;5042406;28;20065;-77
2021/12/19 10:03:54;;;;;;;22.50;13.98;;;;;;;;;;5041618;28;20369;-77
2021/12/19 10:06:21;;;;;;;26.52;15.65;;;;;;;;;;5058619;28;20040;-79
2021/12/19 10:08:49;;;;;;;26.20;16.08;;;;;;;;;;5043973;28;20091;-81
2021/12/19 10:11:31;;;;;;;26.52;16.48;;;;;;;;;;5044627;28;20033;-79
2021/12/19 10:13:57;;;;;;;30.50;17.13;;;;;;;;;;5058267;28;20444;-77
2021/12/19 10:16:24;;;;;;;27.15;17.00;;;;;;;;;;5043408;28;20120;-77
2021/12/19 10:18:54;;;;;;;24.65;16.77;;;;;;;;;;5042662;28;20036;-78
2021/12/19 10:21:20;;;;;;;27.88;18.17;;;;;;;;;;5042177;28;20037;-78
2021/12/19 10:23:46;;;;;;;23.73;16.15;;;;;;;;;;5042449;28;20049;-79
2021/12/19 10:26:12;;;;;;;23.45;15.95;;;;;;;;;;5058527;28;20068;-79
2021/12/19 10:28:55;;;;;;;24.00;14.80;;;;;;;;;;5057826;28;20483;-77
2021/12/19 10:31:21;;;;;;;13.18;8.15;;;;;;;;;;5057833;28;20094;-79
2021/12/19 10:33:48;;;;;;;11.75;8.38;;;;;;;;;;5041770;28;20047;-79
2021/12/19 10:36:14;;;;;;;12.73;8.75;;;;;;;;;;5063098;28;20061;-79
2021/12/19 10:38:52;;;;;;;14.60;8.10;;;;;;;;;;5061703;28;20033;-80
2021/12/19 10:41:23;;;;;;;14.75;8.18;;;;;;;;;;5046980;28;20033;-80
2021/12/19 10:44:03;;;;;;;12.10;8.07;;;;;;;;;;5053657;28;20067;-78
2021/12/19 10:46:29;;;;;;;11.73;8.23;;;;;;;;;;5064228;28;20037;-78
2021/12/19 10:48:55;;;;;;;14.35;8.13;;;;;;;;;;5058458;28;20048;-79
2021/12/19 10:51:21;;;;;;;14.15;8.35;;;;;;;;;;5060490;28;20036;-80
2021/12/19 10:53:55;;;;;;;12.70;7.65;;;;;;;;;;5060907;28;20367;-79
2021/12/19 10:56:31;;;;;;;12.55;8.35;;;;;;;;;;5045376;28;20095;-78
2021/12/19 10:59:01;;;;;;;12.30;8.00;;;;;;;;;;5063809;28;20043;-78
2021/12/19 11:01:31;;;;;;;9.48;7.05;;;;;;;;;;5062795;28;20072;-79
2021/12/19 11:04:17;;;;;;;11.15;6.80;;;;;;;;;;5064331;28;20068;-79
2021/12/19 11:06:48;;;;;;;11.73;7.50;;;;;;;;;;5065405;28;20041;-79
2021/12/19 11:09:14;;;;;;;10.40;7.20;;;;;;;;;;5062759;28;20333;-79
2021/12/19 11:11:59;;;;;;;11.45;7.75;;;;;;;;;;5062833;28;20049;-78
2021/12/19 11:14:26;;;;;;;12.95;7.53;;;;;;;;;;5062312;28;20353;-79
2021/12/19 11:16:53;;;;;;;11.60;7.40;;;;;;;;;;5064796;28;20368;-79
2021/12/19 11:19:19;;;;;;;10.15;6.95;;;;;;;;;;5051193;28;20051;-79
2021/12/19 11:21:45;;;;;;;9.57;7.22;;;;;;;;;;5064182;28;20053;-80
2021/12/19 11:24:16;;;;;;;10.93;8.02;;;;;;;;;;5065287;28;20090;-80
2021/12/19 11:26:42;;;;;;;10.32;8.10;;;;;;;;;;5064112;28;20037;-80
2021/12/19 11:29:08;;;;;;;11.95;8.23;;;;;;;;;;5048782;28;20037;-80
2021/12/19 11:31:34;;;;;;;11.20;7.10;;;;;;;;;;5057452;28;20041;-79
2021/12/19 11:34:11;;;;;;;14.50;8.38;;;;;;;;;;5054531;28;20484;-80
2021/12/19 11:36:38;;;;;;;13.73;7.53;;;;;;;;;;5064451;28;20101;-79
2021/12/19 11:39:04;;;;;;;9.90;7.38;;;;;;;;;;5049448;28;20036;-80
2021/12/19 11:41:31;;;;;;;10.60;7.07;;;;;;;;;;5048202;28;20048;-80
2021/12/19 11:44:00;;;;;;;10.88;6.80;;;;;;;;;;5047656;28;20440;-80
2021/12/19 11:46:51;;;;;;;9.38;6.85;;;;;;;;;;5065334;28;20055;-79
2021/12/19 11:49:26;;;;;;;13.07;7.30;;;;;;;;;;5065982;28;20041;-78
2021/12/19 11:52:11;;;;;;;8.63;6.13;;;;;;;;;;5049738;28;20069;-79
2021/12/19 11:54:37;;;;;;;10.20;6.25;;;;;;;;;;5065051;28;20041;-80
2021/12/19 11:57:09;;;;;;;7.32;5.13;;;;;;;;;;5065469;28;20047;-79
2021/12/19 11:59:37;;;;;;;7.47;4.90;;;;;;;;;;5065064;28;20457;-80
2021/12/19 12:02:35;;;;;;;7.43;4.75;;;;;;;;;;5064331;28;20186;-79
2021/12/19 12:05:13;;;;;;;6.38;4.50;;;;;;;;;;5020815;28;20112;-78
2021/12/19 12:08:11;;;;;;;8.50;5.22;;;;;;;;;;5063174;28;20067;-79
2021/12/19 12:13:34;;;;;;;5.57;4.07;;;;;;;;;;5061607;28;20044;-80
2021/12/19 12:16:18;;;;;;;6.47;4.70;;;;;;;;;;5061831;28;20106;-80
2021/12/19 12:18:44;;;;;;;7.25;4.20;;;;;;;;;;5062673;28;20064;-80
2021/12/19 12:23:52;;;;;;;10.00;6.45;;;;;;;;;;5072293;28;20650;-79
2021/12/19 12:26:22;;;;;;;9.93;5.97;;;;;;;;;;5062051;28;20040;-79
2021/12/19 12:28:48;;;;;;;10.38;6.20;;;;;;;;;;5063103;28;20051;-78
2021/12/19 12:31:14;;;;;;;9.02;6.18;;;;;;;;;;5046056;28;20115;-78
2021/12/19 12:33:40;;;;;;;10.85;6.05;;;;;;;;;;5065180;28;20403;-77
2021/12/19 12:36:07;;;;;;;9.48;6.45;;;;;;;;;;5052620;28;20041;-78
2021/12/19 12:38:33;;;;;;;7.47;5.03;;;;;;;;;;5068200;28;20063;-79
2021/12/19 12:41:16;;;;;;;8.30;4.95;;;;;;;;;;5048022;28;20090;-79
2021/12/19 12:43:43;;;;;;;8.57;5.43;;;;;;;;;;5054608;28;20024;-80
2021/12/19 12:46:16;;;;;;;10.80;4.90;;;;;;;;;;5060434;28;20033;-81
2021/12/19 12:49:04;;;;;;;7.35;4.60;;;;;;;;;;5059890;28;20041;-80
2021/12/19 12:51:37;;;;;;;5.38;4.25;;;;;;;;;;5060058;28;20514;-79
2021/12/19 12:54:03;;;;;;;;;;;;;;;;;;5043732;28;20068;-79
2021/12/19 12:56:35;;;;;;;6.50;4.20;;;;;;;;;;5064034;28;19912;-80
2021/12/19 12:59:01;;;;;;;7.15;4.30;;;;;;;;;;5064024;28;20140;-81
2021/12/19 13:01:34;;;;;;;5.97;4.13;;;;;;;;;;5061918;28;20045;-79
2021/12/19 13:04:03;;;;;;;6.55;4.70;;;;;;;;;;5060931;28;20041;-79
2021/12/19 13:06:41;;;;;;;6.85;4.45;;;;;;;;;;5064567;28;20087;-79
2021/12/19 13:09:13;;;;;;;8.05;4.18;;;;;;;;;;5070976;28;20048;-79
2021/12/19 13:11:39;;;;;;;11.80;4.88;;;;;;;;;;5075162;28;20044;-81
2021/12/19 13:14:12;;;;;;;5.97;4.30;;;;;;;;;;5060081;28;20097;-82
2021/12/19 13:16:42;;;;;;;7.57;5.30;;;;;;;;;;5063165;28;20043;-81
2021/12/19 13:19:08;;;;;;;12.18;7.85;;;;;;;;;;5059966;28;20041;-80
2021/12/19 13:21:54;;;;;;;11.73;6.57;;;;;;;;;;5042797;28;20086;-82
2021/12/19 13:24:21;;;;;;;11.50;7.13;;;;;;;;;;5059961;28;20116;-78
2021/12/19 13:26:47;;;;;;;12.18;7.07;;;;;;;;;;5062333;28;20056;-79
2021/12/19 13:29:17;;;;;;;11.70;7.50;;;;;;;;;;5045573;28;20037;-82
2021/12/19 13:31:43;;;;;;;10.68;7.63;;;;;;;;;;5042403;28;20041;-79
2021/12/19 13:34:13;;;;;;;14.02;9.05;;;;;;;;;;5043274;28;20037;-80
2021/12/19 13:36:39;;;;;;;13.82;9.15;;;;;;;;;;5060917;28;20068;-79
2021/12/19 13:39:16;;;;;;;13.48;9.00;;;;;;;;;;5062456;28;20041;-79
2021/12/19 13:41:42;;;;;;;13.77;10.45;;;;;;;;;;5063372;28;20111;-78
2021/12/19 13:44:08;;;;;;;16.45;9.90;;;;;;;;;;5047082;28;20032;-79
2021/12/19 13:46:34;;;;;;;13.60;9.70;;;;;;;;;;5041375;28;20078;-80
2021/12/19 13:49:00;;;;;;;14.93;9.18;;;;;;;;;;5043058;28;20032;-79
2021/12/19 13:51:29;;;;;;;14.15;9.70;;;;;;;;;;5041781;28;20416;-78
2021/12/19 13:53:56;;;;;;;13.82;8.35;;;;;;;;;;5041264;28;20037;-81
2021/12/19 13:56:29;;;;;;;11.82;8.93;;;;;;;;;;5060205;28;20033;-81
2021/12/19 13:58:59;;;;;;;12.73;8.93;;;;;;;;;;5042846;28;20100;-79
2021/12/19 14:01:33;;;;;;;13.85;9.30;;;;;;;;;;5059107;28;20067;-80
2021/12/19 14:04:15;;;;;;;18.42;9.73;;;;;;;;;;5060226;28;20059;-81
2021/12/19 14:06:42;;;;;;;14.13;10.10;;;;;;;;;;5060315;28;20044;-79
2021/12/19 14:09:10;;;;;;;21.92;11.23;;;;;;;;;;5042374;28;20033;-79
2021/12/19 14:11:39;;;;;;;16.33;11.45;;;;;;;;;;5059190;28;20372;-80
2021/12/19 14:14:08;;;;;;;18.48;11.90;;;;;;;;;;5064845;28;20045;-79
2021/12/19 14:16:36;;;;;;;23.27;13.60;;;;;;;;;;5052257;28;20037;-80
2021/12/19 14:19:02;;;;;;;20.40;13.10;;;;;;;;;;5061199;28;20092;-78
2021/12/19 14:21:32;;;;;;;17.63;12.85;;;;;;;;;;5043190;28;20066;-78
2021/12/19 14:24:07;;;;;;;18.80;12.27;;;;;;;;;;5042295;28;20032;-77
2021/12/19 14:26:33;;;;;;;18.27;12.07;;;;;;;;;;5057110;28;20122;-79
2021/12/19 14:28:59;;;;;;;20.95;12.75;;;;;;;;;;5058647;28;20036;-79
2021/12/19 14:31:25;;;;;;;14.52;11.00;;;;;;;;;;5045410;28;20033;-79
2021/12/19 14:33:51;;;;;;;21.73;10.65;;;;;;;;;;5053544;28;20045;-79
2021/12/19 14:36:17;;;;;;;19.27;10.95;;;;;;;;;;5064479;28;20033;-79
2021/12/19 14:38:43;;;;;;;12.98;9.15;;;;;;;;;;5045285;28;20139;-80
2021/12/19 14:41:10;;;;;;;14.48;9.07;;;;;;;;;;5062610;28;20025;-79
2021/12/19 14:43:36;;;;;;;12.15;8.88;;;;;;;;;;5063160;28;20072;-78
2021/12/19 14:46:03;;;;;;;16.80;8.75;;;;;;;;;;5062988;28;20098;-78
2021/12/19 14:48:34;;;;;;;12.90;8.73;;;;;;;;;;5051648;28;20041;-79
2021/12/19 14:51:01;;;;;;;12.00;7.93;;;;;;;;;;5043668;28;20127;-80
2021/12/19 14:53:28;;;;;;;13.60;8.57;;;;;;;;;;5060580;28;20043;-79
2021/12/19 14:56:06;;;;;;;13.43;8.93;;;;;;;;;;5063334;28;20045;-78
2021/12/19 14:58:33;;;;;;;16.75;8.45;;;;;;;;;;5062905;28;20056;-81
2021/12/19 15:01:06;;;;;;;12.40;8.60;;;;;;;;;;5063016;28;20457;-81
2021/12/19 15:03:33;;;;;;;11.77;8.23;;;;;;;;;;5062382;28;20107;-79
2021/12/19 15:06:01;;;;;;;10.82;8.00;;;;;;;;;;5061146;28;20029;-77
2021/12/19 15:08:28;;;;;;;10.75;7.35;;;;;;;;;;5045865;28;20095;-81
2021/12/19 15:10:59;;;;;;;13.48;7.50;;;;;;;;;;5062871;28;20048;-79
2021/12/19 15:13:25;;;;;;;11.93;7.47;;;;;;;;;;5047575;28;20048;-79
2021/12/19 15:15:51;;;;;;;16.10;8.15;;;;;;;;;;5065227;28;20041;-80
2021/12/19 15:18:17;;;;;;;11.75;7.55;;;;;;;;;;5064364;28;20060;-79
2021/12/19 15:20:43;;;;;;;11.35;7.60;;;;;;;;;;5049971;28;20040;-78
2021/12/19 15:23:09;;;;;;;12.60;8.10;;;;;;;;;;5058107;28;20045;-77
2021/12/19 15:25:35;;;;;;;10.07;7.28;;;;;;;;;;5059021;28;20067;-79
2021/12/19 15:28:02;;;;;;;11.15;7.47;;;;;;;;;;5042287;28;20037;-77
2021/12/19 15:30:28;;;;;;;15.25;8.13;;;;;;;;;;5061252;28;20123;-77
2021/12/19 15:32:55;;;;;;;12.45;7.80;;;;;;;;;;5044956;28;20385;-78
2021/12/19 15:35:21;;;;;;;12.95;8.93;;;;;;;;;;5044257;28;20045;-77
2021/12/19 15:37:47;;;;;;;9.93;8.25;;;;;;;;;;5062384;28;20134;-80
2021/12/19 15:40:13;;;;;;;16.80;10.23;;;;;;;;;;5063669;28;20037;-80
2021/12/19 15:42:39;;;;;;;16.27;10.52;;;;;;;;;;5060200;28;20452;-81